Terminal Aerodrome Forecast
Issued by NWS

Home | Current Version | Previous Version | Text Only | Print | Product List | Glossary On
Versions: 1 2 3 4 5 6 7 8 9 10 11 12 13 14 15 16 17 18 19 20 21 22 23 24 25 26 27 28
000
FTUS42 KCAE 200500
TAFCUB
TAF
KCUB 200526Z 2006/2106 03007G15KT P6SM VCSH OVC015
      TEMPO 2006/2008 4SM -RADZ BR BKN025
     FM200800 03008G18KT P6SM SCT015 OVC025
     FM201100 03010G17KT P6SM SCT020 OVC035
     FM202000 02011G20KT P6SM BKN050
     FM210000 VRB04KT P6SM FEW250=

USA.gov is the U.S. government's official web portal to all federal, state and local government web resources and services.